createdAt,value
2019-02-15T00:00:04.363Z,11.18
2019-02-15T00:02:41.415Z,10.78
2019-02-15T00:05:11.002Z,11.18
2019-02-15T00:07:42.603Z,10.82
2019-02-15T00:10:17.820Z,11.73
2019-02-15T00:12:48.492Z,12.05
2019-02-15T00:15:19.221Z,11.30
2019-02-15T00:17:55.459Z,11.18
2019-02-15T00:20:41.427Z,11.08
2019-02-15T00:23:11.185Z,11.53
2019-02-15T00:25:42.389Z,11.53
2019-02-15T00:28:16.371Z,11.60
2019-02-15T00:30:48.748Z,11.60
2019-02-15T00:33:20.045Z,11.33
2019-02-15T00:35:55.114Z,10.23
2019-02-15T00:38:25.648Z,11.85
2019-02-15T00:40:58.253Z,11.12
2019-02-15T00:43:28.562Z,11.38
2019-02-15T00:46:11.525Z,11.20
2019-02-15T00:48:51.618Z,10.32
2019-02-15T00:51:40.614Z,11.20
2019-02-15T00:54:14.494Z,11.63
2019-02-15T00:56:46.468Z,12.40
2019-02-15T00:59:23.743Z,11.93
2019-02-15T01:02:12.613Z,11.40
2019-02-15T01:04:58.973Z,11.85
2019-02-15T01:07:30.155Z,11.55
2019-02-15T01:10:04.614Z,11.83
2019-02-15T01:12:36.011Z,11.43
2019-02-15T01:15:07.531Z,11.88
2019-02-15T01:17:37.220Z,10.70
2019-02-15T01:20:06.836Z,10.90
2019-02-15T01:22:36.652Z,11.53
2019-02-15T01:25:06.769Z,11.15
2019-02-15T01:27:37.900Z,10.70
2019-02-15T01:30:19.621Z,11.28
2019-02-15T01:32:51.998Z,11.05
2019-02-15T01:35:26.298Z,10.63
2019-02-15T01:38:03.973Z,10.70
2019-02-15T01:40:37.751Z,10.58
2019-02-15T01:43:17.176Z,12.60
2019-02-15T01:45:57.336Z,10.70
2019-02-15T01:48:29.802Z,10.68
2019-02-15T01:50:59.419Z,10.80
2019-02-15T01:53:29.903Z,11.43
2019-02-15T01:55:59.557Z,11.53
2019-02-15T01:58:30.676Z,11.95
2019-02-15T02:01:00.433Z,11.45
2019-02-15T02:03:30.997Z,10.75
2019-02-15T02:06:03.062Z,11.53
2019-02-15T02:08:35.326Z,10.85
2019-02-15T02:11:08.159Z,11.15
2019-02-15T02:13:38.634Z,11.60
2019-02-15T02:16:08.540Z,10.85
2019-02-15T02:18:40.158Z,10.88
2019-02-15T02:21:09.799Z,12.35
2019-02-15T02:23:40.154Z,11.57
2019-02-15T02:26:13.472Z,10.58
2019-02-15T02:28:45.608Z,11.20
2019-02-15T02:31:15.316Z,11.83
2019-02-15T02:33:49.707Z,12.50
2019-02-15T02:39:17.975Z,11.65
2019-02-15T02:41:50.481Z,11.97
2019-02-15T02:44:30.690Z,12.37
2019-02-15T02:47:08.169Z,12.23
2019-02-15T02:49:47.386Z,12.07
2019-02-15T02:52:26.084Z,12.65
2019-02-15T02:55:00.043Z,12.58
2019-02-15T02:57:36.799Z,12.20
2019-02-15T03:00:09.962Z,11.83
2019-02-15T03:02:42.697Z,12.90
2019-02-15T03:05:16.355Z,11.22
2019-02-15T03:07:49.439Z,10.43
2019-02-15T03:10:22.726Z,11.22
2019-02-15T03:12:55.364Z,11.60
2019-02-15T03:15:31.138Z,12.00
2019-02-15T03:18:09.361Z,11.93
2019-02-15T03:20:51.755Z,11.90
2019-02-15T03:29:18.314Z,11.20
2019-02-15T03:31:52.406Z,10.88
2019-02-15T03:34:25.150Z,12.43
2019-02-15T03:37:09.992Z,11.75
2019-02-15T03:39:50.873Z,10.70
2019-02-15T03:42:30.354Z,11.93
2019-02-15T03:45:03.027Z,11.12
2019-02-15T03:47:42.398Z,11.65
2019-02-15T03:50:20.655Z,11.28
2019-02-15T03:53:00.736Z,11.00
2019-02-15T03:58:29.639Z,12.40
2019-02-15T04:03:50.920Z,13.03
2019-02-15T04:06:27.317Z,12.43
2019-02-15T04:09:00.501Z,10.98
2019-02-15T04:11:57.512Z,12.68
2019-02-15T04:14:36.488Z,13.03
2019-02-15T04:17:34.107Z,10.75
2019-02-15T04:20:06.206Z,10.88
2019-02-15T04:22:45.003Z,11.50
2019-02-15T04:25:19.647Z,11.55
2019-02-15T04:27:59.420Z,11.10
2019-02-15T04:30:55.957Z,11.48
2019-02-15T04:33:28.949Z,12.15
2019-02-15T04:36:14.648Z,12.37
2019-02-15T04:38:54.406Z,10.78
2019-02-15T04:41:41.160Z,11.63
2019-02-15T04:44:10.743Z,11.65
2019-02-15T04:46:57.905Z,11.20
2019-02-15T04:49:30.913Z,11.33
2019-02-15T04:52:06.491Z,11.80
2019-02-15T04:54:40.831Z,11.65
2019-02-15T04:58:12.927Z,12.30
2019-02-15T05:00:02.339Z,12.25
2019-02-15T05:05:44.602Z,12.25
2019-02-15T05:08:31.925Z,12.33
2019-02-15T05:13:59.034Z,11.78
2019-02-15T05:16:40.147Z,11.85
2019-02-15T05:19:44.076Z,11.73
2019-02-15T05:28:08.865Z,11.48
2019-02-15T05:30:45.575Z,10.55
2019-02-15T05:33:24.189Z,11.28
2019-02-15T05:36:04.295Z,11.80
2019-02-15T05:38:45.031Z,11.83
2019-02-15T05:41:27.038Z,10.98
2019-02-15T05:44:17.642Z,10.85
2019-02-15T05:49:57.787Z,10.65
2019-02-15T05:52:33.999Z,11.53
2019-02-15T05:55:11.382Z,11.50
2019-02-15T06:04:00.265Z,10.13
2019-02-15T06:09:40.747Z,11.28
2019-02-15T06:12:32.243Z,11.55
2019-02-15T06:22:04.070Z,10.60
2019-02-15T06:24:59.422Z,11.22
2019-02-15T06:27:40.943Z,11.75
2019-02-15T06:30:17.994Z,11.10
2019-02-15T06:33:06.899Z,11.12
2019-02-15T06:35:39.205Z,11.20
2019-02-15T06:38:22.931Z,10.88
2019-02-15T06:40:57.943Z,10.93
2019-02-15T06:43:41.106Z,10.98
2019-02-15T06:46:20.880Z,11.20
2019-02-15T06:48:54.486Z,10.98
2019-02-15T06:51:31.638Z,10.50
2019-02-15T06:54:02.686Z,9.98
2019-02-15T06:56:36.616Z,11.43
2019-02-15T06:59:12.599Z,11.18
2019-02-15T07:01:50.591Z,11.00
2019-02-15T07:04:24.920Z,11.57
2019-02-15T07:07:03.823Z,11.57
2019-02-15T07:09:36.289Z,12.55
2019-02-15T07:12:09.553Z,10.90
2019-02-15T07:14:42.170Z,11.45
2019-02-15T07:17:32.458Z,11.33
2019-02-15T07:20:01.798Z,12.50
2019-02-15T07:22:37.579Z,10.85
2019-02-15T07:25:13.827Z,10.75
2019-02-15T07:27:59.166Z,11.35
2019-02-15T07:30:33.992Z,12.75
2019-02-15T07:33:06.880Z,12.18
2019-02-15T07:35:38.339Z,12.20
2019-02-15T07:38:14.766Z,12.00
2019-02-15T07:40:47.170Z,11.70
2019-02-15T07:43:22.941Z,12.68
2019-02-15T07:45:58.311Z,12.78
2019-02-15T07:48:30.048Z,13.43
2019-02-15T07:51:13.009Z,13.28
2019-02-15T07:53:49.052Z,14.15
2019-02-15T07:56:27.779Z,12.40
2019-02-15T07:59:06.265Z,12.75
2019-02-15T08:02:02.776Z,11.25
2019-02-15T08:14:27.290Z,10.53
2019-02-15T08:32:20.365Z,9.75
2019-02-15T09:49:27.880Z,8.15
2019-02-15T09:52:12.459Z,7.70
2019-02-15T09:55:14.161Z,8.03
2019-02-15T09:59:49.132Z,7.70
2019-02-15T10:01:03.386Z,7.20
2019-02-15T10:25:27.296Z,5.87
2019-02-15T10:31:16.732Z,6.35
2019-02-15T11:20:47.535Z,6.72
2019-02-15T11:29:26.626Z,5.72
2019-02-15T11:46:56.281Z,5.33
2019-02-15T12:57:42.783Z,4.45
2019-02-15T13:09:41.222Z,4.10
2019-02-15T13:28:01.979Z,3.80
2019-02-15T14:46:26.037Z,5.72
2019-02-15T15:05:26.838Z,5.90
2019-02-15T15:08:32.414Z,5.60
2019-02-15T15:11:19.274Z,5.28
2019-02-15T15:14:02.572Z,5.58
2019-02-15T15:16:39.227Z,5.30
2019-02-15T15:19:34.007Z,5.67
2019-02-15T15:22:12.412Z,5.83
2019-02-15T15:24:46.866Z,5.30
2019-02-15T15:27:23.601Z,6.08
2019-02-15T15:30:04.565Z,5.75
2019-02-15T15:32:45.004Z,5.75
2019-02-15T15:41:48.114Z,5.55
2019-02-15T15:44:32.247Z,6.15
2019-02-15T15:47:29.374Z,5.53
2019-02-15T15:50:25.427Z,5.50
2019-02-15T15:53:30.914Z,5.70
2019-02-15T15:56:12.506Z,5.25
2019-02-15T15:59:00.542Z,5.53
2019-02-15T16:01:38.689Z,4.90
2019-02-15T16:04:23.566Z,5.78
2019-02-15T16:07:03.717Z,5.47
2019-02-15T16:13:03.252Z,5.45
2019-02-15T16:15:53.364Z,6.03
2019-02-15T16:18:34.840Z,5.55
2019-02-15T16:21:22.037Z,6.15
2019-02-15T16:24:12.114Z,6.40
2019-02-15T16:26:43.769Z,6.85
2019-02-15T16:29:35.035Z,6.95
2019-02-15T16:32:30.759Z,7.90
2019-02-15T16:35:15.569Z,7.85
2019-02-15T16:37:48.878Z,8.20
2019-02-15T16:40:25.919Z,7.58
2019-02-15T16:43:00.752Z,7.25
2019-02-15T16:45:32.210Z,7.53
2019-02-15T16:48:09.791Z,8.38
2019-02-15T16:50:42.450Z,8.25
2019-02-15T16:53:14.557Z,7.62
2019-02-15T16:55:48.868Z,8.40
2019-02-15T16:58:25.985Z,7.92
2019-02-15T17:00:59.996Z,8.23
2019-02-15T17:03:31.296Z,8.20
2019-02-15T17:06:03.999Z,8.80
2019-02-15T17:08:36.358Z,11.15
2019-02-15T17:11:06.348Z,9.70
2019-02-15T17:13:40.538Z,10.75
2019-02-15T17:16:12.569Z,10.48
2019-02-15T17:18:52.175Z,10.98
2019-02-15T17:21:28.301Z,10.43
2019-02-15T17:24:00.375Z,9.13
2019-02-15T17:26:35.425Z,10.15
2019-02-15T17:29:09.184Z,9.95
2019-02-15T17:31:40.524Z,12.25
2019-02-15T17:34:11.917Z,10.95
2019-02-15T17:36:44.147Z,10.63
2019-02-15T17:39:14.515Z,11.20
2019-02-15T17:41:45.948Z,10.30
2019-02-15T17:44:20.657Z,10.32
2019-02-15T17:46:55.035Z,9.65
2019-02-15T17:49:33.300Z,9.78
2019-02-15T17:52:07.988Z,10.23
2019-02-15T17:54:46.084Z,10.43
2019-02-15T17:57:26.152Z,10.10
2019-02-15T17:59:52.047Z,11.18
2019-02-15T18:02:22.101Z,11.12
2019-02-15T18:04:51.905Z,11.22
2019-02-15T18:07:27.101Z,12.07
2019-02-15T18:09:56.841Z,11.90
2019-02-15T18:12:26.631Z,11.73
2019-02-15T18:15:07.149Z,13.88
2019-02-15T18:20:42.737Z,15.98
2019-02-15T18:23:18.763Z,15.85
2019-02-15T18:26:25.265Z,14.87
2019-02-15T18:29:02.175Z,14.95
2019-02-15T18:31:36.357Z,14.60
2019-02-15T18:34:14.751Z,14.60
2019-02-15T18:37:07.866Z,12.50
2019-02-15T18:45:39.942Z,12.15
2019-02-15T18:48:20.630Z,12.40
2019-02-15T18:53:49.165Z,12.05
2019-02-15T18:56:32.450Z,11.83
2019-02-15T18:59:10.829Z,13.28
2019-02-15T19:01:48.890Z,13.83
2019-02-15T19:08:00.819Z,20.20
2019-02-15T19:13:45.573Z,18.37
2019-02-15T19:16:29.661Z,20.23
2019-02-15T19:19:08.975Z,19.02
2019-02-15T19:21:43.006Z,20.75
2019-02-15T19:24:21.011Z,20.52
2019-02-15T19:26:55.331Z,20.80
2019-02-15T19:29:27.749Z,16.40
2019-02-15T19:32:02.473Z,18.42
2019-02-15T19:34:43.074Z,18.23
2019-02-15T19:37:31.746Z,16.77
2019-02-15T19:40:14.759Z,16.90
2019-02-15T19:43:29.061Z,15.93
2019-02-15T19:48:55.844Z,16.37
2019-02-15T19:51:30.201Z,15.15
2019-02-15T19:54:04.081Z,15.63
2019-02-15T19:56:38.098Z,15.18
2019-02-15T19:59:20.666Z,15.55
2019-02-15T20:01:51.715Z,15.78
2019-02-15T20:04:21.352Z,16.32
2019-02-15T20:07:09.609Z,17.20
2019-02-15T20:09:34.705Z,17.70
2019-02-15T20:12:09.069Z,19.87
2019-02-15T20:14:38.640Z,19.90
2019-02-15T20:17:08.140Z,19.12
2019-02-15T20:19:37.786Z,18.02
2019-02-15T20:22:07.224Z,18.48
2019-02-15T20:24:36.783Z,16.02
2019-02-15T20:27:07.283Z,17.05
2019-02-15T20:29:36.766Z,16.40
2019-02-15T20:32:06.296Z,17.25
2019-02-15T20:34:45.035Z,18.02
2019-02-15T20:37:07.883Z,18.42
2019-02-15T20:39:38.093Z,18.45
2019-02-15T20:42:07.527Z,17.45
2019-02-15T20:44:37.727Z,17.20
2019-02-15T20:47:08.741Z,18.52
2019-02-15T20:49:38.375Z,16.85
2019-02-15T20:52:07.937Z,20.32
2019-02-15T20:54:38.406Z,16.32
2019-02-15T20:57:08.136Z,18.85
2019-02-15T20:59:38.481Z,16.50
2019-02-15T21:02:11.123Z,17.87
2019-02-15T21:04:41.871Z,21.77
2019-02-15T21:07:16.276Z,21.17
2019-02-15T21:09:46.104Z,18.90
2019-02-15T21:12:15.886Z,17.65
2019-02-15T21:14:45.515Z,16.90
2019-02-15T21:17:15.046Z,15.80
2019-02-15T21:19:46.174Z,18.35
2019-02-15T21:22:21.046Z,16.60
2019-02-15T21:24:50.524Z,15.20
2019-02-15T21:27:20.171Z,15.72
2019-02-15T21:29:49.654Z,15.88
2019-02-15T21:32:19.282Z,16.30
2019-02-15T21:34:48.832Z,16.60
2019-02-15T21:37:18.991Z,15.70
2019-02-15T21:39:48.453Z,17.57
2019-02-15T21:42:18.210Z,15.60
2019-02-15T21:44:47.890Z,16.30
2019-02-15T21:47:17.504Z,14.38
2019-02-15T21:49:47.116Z,15.83
2019-02-15T21:52:16.639Z,15.00
2019-02-15T21:54:47.171Z,15.50
2019-02-15T21:57:16.679Z,14.58
2019-02-15T21:59:46.530Z,15.53
2019-02-15T22:02:18.828Z,16.20
2019-02-15T22:04:48.337Z,15.50
2019-02-15T22:07:19.396Z,16.42
2019-02-15T22:09:50.360Z,14.15
2019-02-15T22:12:19.886Z,14.90
2019-02-15T22:14:49.432Z,14.07
2019-02-15T22:17:18.867Z,13.30
2019-02-15T22:19:48.471Z,12.15
2019-02-15T22:22:18.322Z,12.60
2019-02-15T22:24:48.503Z,12.50
2019-02-15T22:27:38.173Z,12.82
2019-02-15T22:30:12.790Z,12.40
2019-02-15T22:32:42.711Z,12.55
2019-02-15T22:35:12.325Z,11.50
2019-02-15T22:37:41.678Z,12.07
2019-02-15T22:40:33.292Z,11.93
2019-02-15T22:43:08.076Z,12.18
2019-02-15T22:45:37.558Z,12.03
2019-02-15T22:48:08.096Z,11.90
2019-02-15T22:50:37.714Z,12.23
2019-02-15T22:53:08.341Z,11.10
2019-02-15T22:55:37.903Z,12.07
2019-02-15T22:58:09.211Z,11.88
2019-02-15T23:00:54.634Z,11.50
2019-02-15T23:03:26.634Z,11.75
2019-02-15T23:05:56.150Z,10.93
2019-02-15T23:08:26.225Z,11.33
2019-02-15T23:10:55.662Z,10.95
2019-02-15T23:13:30.083Z,10.93
2019-02-15T23:15:59.553Z,11.15
2019-02-15T23:18:29.050Z,11.50
2019-02-15T23:20:58.661Z,10.98
2019-02-15T23:23:28.852Z,9.85
2019-02-15T23:25:58.390Z,10.30
2019-02-15T23:28:27.793Z,10.13
2019-02-15T23:30:57.388Z,11.22
2019-02-15T23:33:26.982Z,10.95
2019-02-15T23:35:56.550Z,10.50
2019-02-15T23:38:26.221Z,10.50
2019-02-15T23:40:58.981Z,11.22
2019-02-15T23:43:28.420Z,11.05
2019-02-15T23:45:57.977Z,10.80
2019-02-15T23:52:02.592Z,10.80
2019-02-15T23:54:32.691Z,10.80
2019-02-15T23:57:02.296Z,11.73
2019-02-15T23:59:32.561Z,11.35
